Terminal Aerodrome Forecast
Issued by NWS

Home | Current Version | Previous Version | Text Only | Print | Product List | Glossary On
Versions: 1 2 3 4 5 6 7 8 9 10 11 12 13 14 15 16 17 18 19 20
000
FTPA31 PHFO 252300
TAFPPG
TAF
NSTU 252339Z 2600/2624 11014KT P6SM VCSH SCT020 BKN100 BKN200
     FM261500 11013KT P6SM VCSH SCT015 BKN035
     FM262100 09011KT 6SM -SHRA VCTS SCT015CB BKN025=

USA.gov is the U.S. government's official web portal to all federal, state and local government web resources and services.